sensor_id;sensor_type;location;lat;lon;timestamp;P1;durP1;ratioP1;P2;durP2;ratioP2
53879;SDS011;39791;53.184;5.486;2024-03-29T00:00:52;19.55;;;17.73;;
53879;SDS011;39791;53.184;5.486;2024-03-29T00:03:18;18.85;;;17.15;;
53879;SDS011;39791;53.184;5.486;2024-03-29T00:05:44;20.80;;;17.33;;
53879;SDS011;39791;53.184;5.486;2024-03-29T00:08:10;18.27;;;16.58;;
53879;SDS011;39791;53.184;5.486;2024-03-29T00:10:36;17.05;;;15.35;;
53879;SDS011;39791;53.184;5.486;2024-03-29T00:13:01;19.67;;;17.70;;
53879;SDS011;39791;53.184;5.486;2024-03-29T00:15:27;18.38;;;16.55;;
53879;SDS011;39791;53.184;5.486;2024-03-29T00:17:52;16.60;;;15.13;;
53879;SDS011;39791;53.184;5.486;2024-03-29T00:20:18;18.92;;;16.95;;
53879;SDS011;39791;53.184;5.486;2024-03-29T00:22:46;18.92;;;17.17;;
53879;SDS011;39791;53.184;5.486;2024-03-29T00:25:12;15.85;;;14.20;;
53879;SDS011;39791;53.184;5.486;2024-03-29T00:27:37;17.35;;;15.57;;
53879;SDS011;39791;53.184;5.486;2024-03-29T00:30:03;18.00;;;16.27;;
53879;SDS011;39791;53.184;5.486;2024-03-29T00:32:29;18.05;;;16.25;;
53879;SDS011;39791;53.184;5.486;2024-03-29T00:34:55;17.55;;;15.85;;
53879;SDS011;39791;53.184;5.486;2024-03-29T00:37:23;19.23;;;17.33;;
53879;SDS011;39791;53.184;5.486;2024-03-29T00:39:49;17.33;;;15.60;;
53879;SDS011;39791;53.184;5.486;2024-03-29T00:42:14;16.45;;;14.95;;
53879;SDS011;39791;53.184;5.486;2024-03-29T00:44:41;17.10;;;15.38;;
53879;SDS011;39791;53.184;5.486;2024-03-29T00:47:08;20.50;;;16.60;;
53879;SDS011;39791;53.184;5.486;2024-03-29T00:49:34;16.92;;;15.23;;
53879;SDS011;39791;53.184;5.486;2024-03-29T00:52:00;18.73;;;16.63;;
53879;SDS011;39791;53.184;5.486;2024-03-29T00:54:26;17.83;;;15.95;;
53879;SDS011;39791;53.184;5.486;2024-03-29T00:56:51;18.05;;;15.73;;
53879;SDS011;39791;53.184;5.486;2024-03-29T00:59:17;18.70;;;16.80;;
53879;SDS011;39791;53.184;5.486;2024-03-29T01:01:43;19.48;;;17.27;;
53879;SDS011;39791;53.184;5.486;2024-03-29T01:04:10;19.58;;;15.25;;
53879;SDS011;39791;53.184;5.486;2024-03-29T01:06:36;17.17;;;15.50;;
53879;SDS011;39791;53.184;5.486;2024-03-29T01:09:02;16.90;;;15.20;;
53879;SDS011;39791;53.184;5.486;2024-03-29T01:11:28;18.63;;;16.70;;
53879;SDS011;39791;53.184;5.486;2024-03-29T01:13:54;18.52;;;16.77;;
53879;SDS011;39791;53.184;5.486;2024-03-29T01:16:20;17.23;;;15.65;;
53879;SDS011;39791;53.184;5.486;2024-03-29T01:18:45;19.63;;;17.48;;
53879;SDS011;39791;53.184;5.486;2024-03-29T01:21:12;21.25;;;17.70;;
53879;SDS011;39791;53.184;5.486;2024-03-29T01:23:38;19.05;;;17.15;;
53879;SDS011;39791;53.184;5.486;2024-03-29T01:26:04;20.55;;;18.52;;
53879;SDS011;39791;53.184;5.486;2024-03-29T01:28:31;19.10;;;17.30;;
53879;SDS011;39791;53.184;5.486;2024-03-29T01:30:56;19.98;;;17.98;;
53879;SDS011;39791;53.184;5.486;2024-03-29T01:33:23;24.63;;;20.08;;
53879;SDS011;39791;53.184;5.486;2024-03-29T01:35:49;21.60;;;19.20;;
53879;SDS011;39791;53.184;5.486;2024-03-29T01:38:15;16.23;;;14.77;;
53879;SDS011;39791;53.184;5.486;2024-03-29T01:40:40;20.17;;;18.15;;
53879;SDS011;39791;53.184;5.486;2024-03-29T01:43:06;19.75;;;17.77;;
53879;SDS011;39791;53.184;5.486;2024-03-29T01:45:34;20.27;;;18.23;;
53879;SDS011;39791;53.184;5.486;2024-03-29T01:48:03;18.20;;;16.52;;
53879;SDS011;39791;53.184;5.486;2024-03-29T01:50:29;19.75;;;16.88;;
53879;SDS011;39791;53.184;5.486;2024-03-29T01:52:56;17.98;;;16.27;;
53879;SDS011;39791;53.184;5.486;2024-03-29T01:55:21;20.33;;;18.25;;
53879;SDS011;39791;53.184;5.486;2024-03-29T01:57:47;21.20;;;18.20;;
53879;SDS011;39791;53.184;5.486;2024-03-29T02:00:13;18.83;;;16.85;;
53879;SDS011;39791;53.184;5.486;2024-03-29T02:02:39;22.80;;;20.58;;
53879;SDS011;39791;53.184;5.486;2024-03-29T02:05:06;18.98;;;17.17;;
53879;SDS011;39791;53.184;5.486;2024-03-29T02:07:32;19.63;;;17.50;;
53879;SDS011;39791;53.184;5.486;2024-03-29T02:09:58;19.10;;;17.05;;
53879;SDS011;39791;53.184;5.486;2024-03-29T02:12:24;21.25;;;19.10;;
53879;SDS011;39791;53.184;5.486;2024-03-29T02:14:50;17.85;;;16.25;;
53879;SDS011;39791;53.184;5.486;2024-03-29T02:17:15;20.45;;;18.17;;
53879;SDS011;39791;53.184;5.486;2024-03-29T02:19:41;17.33;;;15.73;;
53879;SDS011;39791;53.184;5.486;2024-03-29T02:22:07;20.77;;;18.65;;
53879;SDS011;39791;53.184;5.486;2024-03-29T02:24:35;25.17;;;20.88;;
53879;SDS011;39791;53.184;5.486;2024-03-29T02:27:01;20.85;;;18.88;;
53879;SDS011;39791;53.184;5.486;2024-03-29T02:29:26;24.40;;;21.77;;
53879;SDS011;39791;53.184;5.486;2024-03-29T02:31:52;24.50;;;21.75;;
53879;SDS011;39791;53.184;5.486;2024-03-29T02:34:17;24.80;;;22.25;;
53879;SDS011;39791;53.184;5.486;2024-03-29T02:36:43;24.98;;;22.58;;
53879;SDS011;39791;53.184;5.486;2024-03-29T02:39:10;24.65;;;22.08;;
53879;SDS011;39791;53.184;5.486;2024-03-29T02:41:36;23.45;;;21.13;;
53879;SDS011;39791;53.184;5.486;2024-03-29T02:44:01;22.73;;;20.45;;
53879;SDS011;39791;53.184;5.486;2024-03-29T02:46:27;22.20;;;20.02;;
53879;SDS011;39791;53.184;5.486;2024-03-29T02:48:53;20.80;;;18.95;;
53879;SDS011;39791;53.184;5.486;2024-03-29T02:51:18;22.08;;;19.98;;
53879;SDS011;39791;53.184;5.486;2024-03-29T02:53:44;20.80;;;18.80;;
53879;SDS011;39791;53.184;5.486;2024-03-29T02:56:09;21.83;;;19.15;;
53879;SDS011;39791;53.184;5.486;2024-03-29T02:58:35;23.30;;;21.10;;
53879;SDS011;39791;53.184;5.486;2024-03-29T03:01:07;22.27;;;20.20;;
53879;SDS011;39791;53.184;5.486;2024-03-29T03:03:34;25.63;;;22.92;;
53879;SDS011;39791;53.184;5.486;2024-03-29T03:06:00;26.05;;;23.45;;
53879;SDS011;39791;53.184;5.486;2024-03-29T03:08:26;23.17;;;20.70;;
53879;SDS011;39791;53.184;5.486;2024-03-29T03:11:10;23.15;;;20.95;;
53879;SDS011;39791;53.184;5.486;2024-03-29T03:13:36;20.27;;;18.48;;
53879;SDS011;39791;53.184;5.486;2024-03-29T03:16:01;25.05;;;22.48;;
53879;SDS011;39791;53.184;5.486;2024-03-29T03:18:28;22.48;;;20.08;;
53879;SDS011;39791;53.184;5.486;2024-03-29T03:20:53;19.98;;;18.05;;
53879;SDS011;39791;53.184;5.486;2024-03-29T03:23:20;22.75;;;20.45;;
53879;SDS011;39791;53.184;5.486;2024-03-29T03:25:46;23.38;;;20.95;;
53879;SDS011;39791;53.184;5.486;2024-03-29T03:28:22;21.77;;;19.55;;
53879;SDS011;39791;53.184;5.486;2024-03-29T03:30:48;23.27;;;20.95;;
53879;SDS011;39791;53.184;5.486;2024-03-29T03:33:14;22.88;;;20.70;;
53879;SDS011;39791;53.184;5.486;2024-03-29T03:35:41;23.63;;;21.38;;
53879;SDS011;39791;53.184;5.486;2024-03-29T03:38:07;21.85;;;19.75;;
53879;SDS011;39791;53.184;5.486;2024-03-29T03:40:33;19.27;;;17.45;;
53879;SDS011;39791;53.184;5.486;2024-03-29T03:42:59;18.00;;;16.38;;
53879;SDS011;39791;53.184;5.486;2024-03-29T03:45:25;19.83;;;17.98;;
53879;SDS011;39791;53.184;5.486;2024-03-29T03:47:51;18.67;;;17.02;;
53879;SDS011;39791;53.184;5.486;2024-03-29T03:50:16;20.48;;;18.50;;
53879;SDS011;39791;53.184;5.486;2024-03-29T03:52:42;21.77;;;19.55;;
53879;SDS011;39791;53.184;5.486;2024-03-29T03:55:07;20.63;;;18.60;;
53879;SDS011;39791;53.184;5.486;2024-03-29T03:57:33;21.10;;;19.23;;
53879;SDS011;39791;53.184;5.486;2024-03-29T03:59:59;19.42;;;17.65;;
53879;SDS011;39791;53.184;5.486;2024-03-29T04:02:25;24.77;;;18.77;;
53879;SDS011;39791;53.184;5.486;2024-03-29T04:04:50;21.40;;;18.75;;
53879;SDS011;39791;53.184;5.486;2024-03-29T04:07:16;20.35;;;18.05;;
53879;SDS011;39791;53.184;5.486;2024-03-29T04:09:42;19.08;;;17.38;;
53879;SDS011;39791;53.184;5.486;2024-03-29T04:12:07;20.85;;;18.92;;
53879;SDS011;39791;53.184;5.486;2024-03-29T04:14:33;18.50;;;16.77;;
53879;SDS011;39791;53.184;5.486;2024-03-29T04:16:58;17.88;;;16.27;;
53879;SDS011;39791;53.184;5.486;2024-03-29T04:19:24;17.73;;;15.90;;
53879;SDS011;39791;53.184;5.486;2024-03-29T04:21:50;18.58;;;16.58;;
53879;SDS011;39791;53.184;5.486;2024-03-29T04:24:17;17.73;;;15.20;;
53879;SDS011;39791;53.184;5.486;2024-03-29T04:26:43;16.75;;;15.05;;
53879;SDS011;39791;53.184;5.486;2024-03-29T04:29:09;17.20;;;15.50;;
53879;SDS011;39791;53.184;5.486;2024-03-29T04:31:35;16.23;;;14.57;;
53879;SDS011;39791;53.184;5.486;2024-03-29T04:34:01;19.58;;;17.48;;
53879;SDS011;39791;53.184;5.486;2024-03-29T04:36:27;14.25;;;12.88;;
53879;SDS011;39791;53.184;5.486;2024-03-29T04:38:52;15.52;;;14.13;;
53879;SDS011;39791;53.184;5.486;2024-03-29T04:41:18;15.68;;;14.15;;
53879;SDS011;39791;53.184;5.486;2024-03-29T04:43:44;16.10;;;14.38;;
53879;SDS011;39791;53.184;5.486;2024-03-29T04:46:10;18.98;;;16.67;;
53879;SDS011;39791;53.184;5.486;2024-03-29T04:48:37;15.32;;;13.73;;
53879;SDS011;39791;53.184;5.486;2024-03-29T04:51:04;15.80;;;14.23;;
53879;SDS011;39791;53.184;5.486;2024-03-29T04:53:29;17.75;;;15.95;;
53879;SDS011;39791;53.184;5.486;2024-03-29T04:55:58;16.33;;;14.65;;
53879;SDS011;39791;53.184;5.486;2024-03-29T04:58:27;18.60;;;16.50;;
53879;SDS011;39791;53.184;5.486;2024-03-29T05:00:53;15.43;;;13.82;;
53879;SDS011;39791;53.184;5.486;2024-03-29T05:03:20;17.88;;;16.27;;
53879;SDS011;39791;53.184;5.486;2024-03-29T05:05:47;17.05;;;15.40;;
53879;SDS011;39791;53.184;5.486;2024-03-29T05:08:14;15.95;;;14.43;;
53879;SDS011;39791;53.184;5.486;2024-03-29T05:10:40;16.40;;;14.90;;
53879;SDS011;39791;53.184;5.486;2024-03-29T05:13:06;17.30;;;15.70;;
53879;SDS011;39791;53.184;5.486;2024-03-29T05:15:32;19.15;;;17.00;;
53879;SDS011;39791;53.184;5.486;2024-03-29T05:17:58;17.90;;;16.30;;
53879;SDS011;39791;53.184;5.486;2024-03-29T05:20:23;16.60;;;15.00;;
53879;SDS011;39791;53.184;5.486;2024-03-29T05:22:49;18.77;;;16.17;;
53879;SDS011;39791;53.184;5.486;2024-03-29T05:25:15;17.17;;;15.20;;
53879;SDS011;39791;53.184;5.486;2024-03-29T05:27:41;14.55;;;13.15;;
53879;SDS011;39791;53.184;5.486;2024-03-29T05:30:06;18.23;;;16.45;;
53879;SDS011;39791;53.184;5.486;2024-03-29T05:32:34;15.13;;;13.60;;
53879;SDS011;39791;53.184;5.486;2024-03-29T05:35:00;17.77;;;16.15;;
53879;SDS011;39791;53.184;5.486;2024-03-29T05:37:26;17.10;;;15.48;;
53879;SDS011;39791;53.184;5.486;2024-03-29T05:39:51;14.68;;;13.35;;
53879;SDS011;39791;53.184;5.486;2024-03-29T05:42:27;14.82;;;13.52;;
53879;SDS011;39791;53.184;5.486;2024-03-29T05:44:54;16.77;;;15.25;;
53879;SDS011;39791;53.184;5.486;2024-03-29T05:47:20;16.95;;;15.25;;
53879;SDS011;39791;53.184;5.486;2024-03-29T05:49:46;15.23;;;13.93;;
53879;SDS011;39791;53.184;5.486;2024-03-29T05:52:12;14.07;;;12.73;;
53879;SDS011;39791;53.184;5.486;2024-03-29T05:54:43;15.52;;;14.13;;
53879;SDS011;39791;53.184;5.486;2024-03-29T05:57:11;12.02;;;11.13;;
53879;SDS011;39791;53.184;5.486;2024-03-29T05:59:36;12.60;;;11.48;;
53879;SDS011;39791;53.184;5.486;2024-03-29T06:02:03;15.35;;;14.05;;
53879;SDS011;39791;53.184;5.486;2024-03-29T06:04:28;16.25;;;14.85;;
53879;SDS011;39791;53.184;5.486;2024-03-29T06:06:58;16.30;;;14.85;;
53879;SDS011;39791;53.184;5.486;2024-03-29T06:09:28;15.77;;;14.40;;
53879;SDS011;39791;53.184;5.486;2024-03-29T06:11:54;20.95;;;19.05;;
53879;SDS011;39791;53.184;5.486;2024-03-29T06:14:21;17.92;;;16.33;;
53879;SDS011;39791;53.184;5.486;2024-03-29T06:17:06;15.20;;;14.00;;
53879;SDS011;39791;53.184;5.486;2024-03-29T06:19:50;18.75;;;16.55;;
53879;SDS011;39791;53.184;5.486;2024-03-29T06:22:20;16.73;;;15.13;;
53879;SDS011;39791;53.184;5.486;2024-03-29T06:24:46;21.65;;;19.70;;
53879;SDS011;39791;53.184;5.486;2024-03-29T06:27:12;19.48;;;17.65;;
53879;SDS011;39791;53.184;5.486;2024-03-29T06:29:42;17.80;;;16.08;;
53879;SDS011;39791;53.184;5.486;2024-03-29T06:32:08;19.58;;;17.70;;
53879;SDS011;39791;53.184;5.486;2024-03-29T06:34:33;17.65;;;16.05;;
53879;SDS011;39791;53.184;5.486;2024-03-29T06:36:59;22.65;;;20.67;;
53879;SDS011;39791;53.184;5.486;2024-03-29T06:39:25;19.33;;;17.52;;
53879;SDS011;39791;53.184;5.486;2024-03-29T06:41:53;16.88;;;15.55;;
53879;SDS011;39791;53.184;5.486;2024-03-29T06:44:19;20.08;;;18.35;;
53879;SDS011;39791;53.184;5.486;2024-03-29T06:46:45;17.13;;;15.75;;
53879;SDS011;39791;53.184;5.486;2024-03-29T06:49:11;19.65;;;17.95;;
53879;SDS011;39791;53.184;5.486;2024-03-29T06:51:38;21.27;;;19.27;;
53879;SDS011;39791;53.184;5.486;2024-03-29T06:54:05;19.42;;;17.73;;
53879;SDS011;39791;53.184;5.486;2024-03-29T06:56:31;21.80;;;19.80;;
53879;SDS011;39791;53.184;5.486;2024-03-29T06:58:56;18.10;;;16.50;;
53879;SDS011;39791;53.184;5.486;2024-03-29T07:01:23;20.80;;;19.08;;
53879;SDS011;39791;53.184;5.486;2024-03-29T07:03:48;22.85;;;20.85;;
53879;SDS011;39791;53.184;5.486;2024-03-29T07:06:14;18.77;;;17.08;;
53879;SDS011;39791;53.184;5.486;2024-03-29T07:08:40;22.05;;;20.05;;
53879;SDS011;39791;53.184;5.486;2024-03-29T07:11:05;22.58;;;20.58;;
53879;SDS011;39791;53.184;5.486;2024-03-29T07:13:31;20.92;;;19.23;;
53879;SDS011;39791;53.184;5.486;2024-03-29T07:16:00;21.85;;;20.05;;
53879;SDS011;39791;53.184;5.486;2024-03-29T07:18:26;22.17;;;20.35;;
53879;SDS011;39791;53.184;5.486;2024-03-29T07:20:52;22.90;;;21.08;;
53879;SDS011;39791;53.184;5.486;2024-03-29T07:23:18;23.67;;;21.75;;
53879;SDS011;39791;53.184;5.486;2024-03-29T07:25:44;24.38;;;22.27;;
53879;SDS011;39791;53.184;5.486;2024-03-29T07:28:10;23.00;;;20.90;;
53879;SDS011;39791;53.184;5.486;2024-03-29T07:30:39;20.25;;;18.58;;
53879;SDS011;39791;53.184;5.486;2024-03-29T07:33:09;20.75;;;19.08;;
53879;SDS011;39791;53.184;5.486;2024-03-29T07:35:35;18.40;;;16.83;;
53879;SDS011;39791;53.184;5.486;2024-03-29T07:38:03;22.88;;;20.88;;
53879;SDS011;39791;53.184;5.486;2024-03-29T07:40:28;23.73;;;21.80;;
53879;SDS011;39791;53.184;5.486;2024-03-29T07:42:54;21.95;;;20.15;;
53879;SDS011;39791;53.184;5.486;2024-03-29T07:45:20;23.23;;;21.23;;
53879;SDS011;39791;53.184;5.486;2024-03-29T07:47:46;19.85;;;18.25;;
53879;SDS011;39791;53.184;5.486;2024-03-29T07:50:17;21.05;;;19.35;;
53879;SDS011;39791;53.184;5.486;2024-03-29T07:52:44;21.27;;;19.38;;
53879;SDS011;39791;53.184;5.486;2024-03-29T07:55:10;24.30;;;22.08;;
53879;SDS011;39791;53.184;5.486;2024-03-29T07:57:36;27.73;;;25.35;;
53879;SDS011;39791;53.184;5.486;2024-03-29T08:00:02;25.08;;;22.98;;
53879;SDS011;39791;53.184;5.486;2024-03-29T08:02:28;25.83;;;23.63;;
53879;SDS011;39791;53.184;5.486;2024-03-29T08:04:55;26.10;;;23.90;;
53879;SDS011;39791;53.184;5.486;2024-03-29T08:07:20;23.42;;;21.40;;
53879;SDS011;39791;53.184;5.486;2024-03-29T08:09:46;26.17;;;23.95;;
53879;SDS011;39791;53.184;5.486;2024-03-29T08:12:12;23.55;;;21.63;;
53879;SDS011;39791;53.184;5.486;2024-03-29T08:14:37;27.25;;;24.77;;
53879;SDS011;39791;53.184;5.486;2024-03-29T08:17:03;24.05;;;21.85;;
53879;SDS011;39791;53.184;5.486;2024-03-29T08:19:32;24.63;;;22.42;;
53879;SDS011;39791;53.184;5.486;2024-03-29T08:21:59;24.95;;;22.77;;
53879;SDS011;39791;53.184;5.486;2024-03-29T08:24:26;21.33;;;19.42;;
53879;SDS011;39791;53.184;5.486;2024-03-29T08:26:52;23.85;;;21.90;;
53879;SDS011;39791;53.184;5.486;2024-03-29T08:29:17;17.98;;;16.55;;
53879;SDS011;39791;53.184;5.486;2024-03-29T08:31:43;23.58;;;21.63;;
53879;SDS011;39791;53.184;5.486;2024-03-29T08:34:08;19.10;;;17.55;;
53879;SDS011;39791;53.184;5.486;2024-03-29T08:36:38;17.27;;;15.98;;
53879;SDS011;39791;53.184;5.486;2024-03-29T08:39:04;11.07;;;10.27;;
53879;SDS011;39791;53.184;5.486;2024-03-29T08:41:29;15.57;;;14.38;;
53879;SDS011;39791;53.184;5.486;2024-03-29T08:43:55;17.95;;;16.35;;
53879;SDS011;39791;53.184;5.486;2024-03-29T08:46:21;12.60;;;11.32;;
53879;SDS011;39791;53.184;5.486;2024-03-29T08:48:46;14.10;;;13.02;;
53879;SDS011;39791;53.184;5.486;2024-03-29T08:51:12;12.55;;;11.43;;
53879;SDS011;39791;53.184;5.486;2024-03-29T08:53:39;18.17;;;16.77;;
53879;SDS011;39791;53.184;5.486;2024-03-29T08:56:05;16.70;;;15.40;;
53879;SDS011;39791;53.184;5.486;2024-03-29T08:58:31;13.95;;;12.95;;
53879;SDS011;39791;53.184;5.486;2024-03-29T09:00:57;21.75;;;19.88;;
53879;SDS011;39791;53.184;5.486;2024-03-29T09:03:23;18.23;;;16.80;;
53879;SDS011;39791;53.184;5.486;2024-03-29T09:05:49;20.23;;;18.52;;
53879;SDS011;39791;53.184;5.486;2024-03-29T09:08:17;15.68;;;14.38;;
53879;SDS011;39791;53.184;5.486;2024-03-29T09:10:43;20.02;;;18.42;;
53879;SDS011;39791;53.184;5.486;2024-03-29T09:13:08;12.90;;;11.88;;
53879;SDS011;39791;53.184;5.486;2024-03-29T09:15:35;13.93;;;12.88;;
53879;SDS011;39791;53.184;5.486;2024-03-29T09:18:01;9.52;;;8.82;;
53879;SDS011;39791;53.184;5.486;2024-03-29T09:20:34;12.43;;;11.52;;
53879;SDS011;39791;53.184;5.486;2024-03-29T09:23:00;12.40;;;11.40;;
53879;SDS011;39791;53.184;5.486;2024-03-29T09:25:26;8.50;;;7.70;;
53879;SDS011;39791;53.184;5.486;2024-03-29T09:27:52;11.18;;;10.27;;
53879;SDS011;39791;53.184;5.486;2024-03-29T09:30:17;8.38;;;7.68;;
53879;SDS011;39791;53.184;5.486;2024-03-29T09:32:44;7.72;;;6.95;;
53879;SDS011;39791;53.184;5.486;2024-03-29T09:35:10;7.28;;;6.78;;
53879;SDS011;39791;53.184;5.486;2024-03-29T09:37:36;9.52;;;8.63;;
53879;SDS011;39791;53.184;5.486;2024-03-29T09:40:03;6.55;;;6.05;;
53879;SDS011;39791;53.184;5.486;2024-03-29T09:42:29;5.43;;;5.03;;
53879;SDS011;39791;53.184;5.486;2024-03-29T09:44:57;7.90;;;7.15;;
53879;SDS011;39791;53.184;5.486;2024-03-29T09:47:24;6.18;;;5.63;;
53879;SDS011;39791;53.184;5.486;2024-03-29T09:49:52;8.27;;;6.85;;
53879;SDS011;39791;53.184;5.486;2024-03-29T09:52:19;6.70;;;6.22;;
53879;SDS011;39791;53.184;5.486;2024-03-29T09:54:45;6.28;;;5.80;;
53879;SDS011;39791;53.184;5.486;2024-03-29T09:57:11;5.95;;;5.47;;
53879;SDS011;39791;53.184;5.486;2024-03-29T09:59:42;7.38;;;6.85;;
53879;SDS011;39791;53.184;5.486;2024-03-29T10:02:17;14.30;;;13.30;;
53879;SDS011;39791;53.184;5.486;2024-03-29T10:04:45;7.93;;;7.22;;
53879;SDS011;39791;53.184;5.486;2024-03-29T10:07:13;8.13;;;7.50;;
53879;SDS011;39791;53.184;5.486;2024-03-29T10:09:40;6.55;;;6.03;;
53879;SDS011;39791;53.184;5.486;2024-03-29T10:12:07;6.93;;;6.43;;
53879;SDS011;39791;53.184;5.486;2024-03-29T10:14:43;7.43;;;6.82;;
53879;SDS011;39791;53.184;5.486;2024-03-29T10:17:17;7.63;;;7.03;;
53879;SDS011;39791;53.184;5.486;2024-03-29T10:19:43;8.43;;;7.72;;
53879;SDS011;39791;53.184;5.486;2024-03-29T10:22:09;9.35;;;8.48;;
53879;SDS011;39791;53.184;5.486;2024-03-29T10:24:35;6.25;;;5.55;;
53879;SDS011;39791;53.184;5.486;2024-03-29T10:27:02;8.82;;;8.00;;
53879;SDS011;39791;53.184;5.486;2024-03-29T10:29:28;7.10;;;6.40;;
53879;SDS011;39791;53.184;5.486;2024-03-29T10:31:57;3.28;;;3.08;;
53879;SDS011;39791;53.184;5.486;2024-03-29T10:34:24;4.10;;;3.70;;
53879;SDS011;39791;53.184;5.486;2024-03-29T10:36:50;3.83;;;3.33;;
53879;SDS011;39791;53.184;5.486;2024-03-29T10:39:16;6.10;;;4.13;;
53879;SDS011;39791;53.184;5.486;2024-03-29T10:41:42;5.47;;;4.97;;
53879;SDS011;39791;53.184;5.486;2024-03-29T10:44:11;4.00;;;3.47;;
53879;SDS011;39791;53.184;5.486;2024-03-29T10:46:38;4.55;;;4.15;;
53879;SDS011;39791;53.184;5.486;2024-03-29T10:49:05;9.75;;;8.85;;
53879;SDS011;39791;53.184;5.486;2024-03-29T10:51:39;7.55;;;6.82;;
53879;SDS011;39791;53.184;5.486;2024-03-29T10:54:08;4.30;;;3.72;;
53879;SDS011;39791;53.184;5.486;2024-03-29T10:56:35;5.70;;;5.20;;
53879;SDS011;39791;53.184;5.486;2024-03-29T10:59:18;5.53;;;4.35;;
53879;SDS011;39791;53.184;5.486;2024-03-29T11:01:59;6.13;;;5.60;;
53879;SDS011;39791;53.184;5.486;2024-03-29T11:04:29;7.47;;;6.88;;
53879;SDS011;39791;53.184;5.486;2024-03-29T11:06:59;5.95;;;5.45;;
53879;SDS011;39791;53.184;5.486;2024-03-29T11:09:31;8.00;;;7.40;;
53879;SDS011;39791;53.184;5.486;2024-03-29T11:12:00;8.32;;;7.72;;
53879;SDS011;39791;53.184;5.486;2024-03-29T11:14:35;8.18;;;7.57;;
53879;SDS011;39791;53.184;5.486;2024-03-29T11:17:07;7.55;;;6.95;;
53879;SDS011;39791;53.184;5.486;2024-03-29T11:19:34;7.05;;;6.45;;
53879;SDS011;39791;53.184;5.486;2024-03-29T11:22:01;5.88;;;5.38;;
53879;SDS011;39791;53.184;5.486;2024-03-29T11:24:27;7.63;;;7.05;;
53879;SDS011;39791;53.184;5.486;2024-03-29T11:26:54;7.80;;;7.15;;
53879;SDS011;39791;53.184;5.486;2024-03-29T11:29:23;7.05;;;6.55;;
53879;SDS011;39791;53.184;5.486;2024-03-29T11:31:58;10.45;;;9.30;;
53879;SDS011;39791;53.184;5.486;2024-03-29T11:34:24;12.00;;;11.20;;
53879;SDS011;39791;53.184;5.486;2024-03-29T11:36:50;11.00;;;10.02;;
53879;SDS011;39791;53.184;5.486;2024-03-29T11:39:20;10.68;;;9.77;;
53879;SDS011;39791;53.184;5.486;2024-03-29T11:41:47;11.60;;;10.70;;
53879;SDS011;39791;53.184;5.486;2024-03-29T11:44:13;9.45;;;8.75;;
53879;SDS011;39791;53.184;5.486;2024-03-29T11:46:39;12.88;;;11.88;;
53879;SDS011;39791;53.184;5.486;2024-03-29T11:49:05;20.52;;;12.10;;
53879;SDS011;39791;53.184;5.486;2024-03-29T11:51:31;8.13;;;7.50;;
53879;SDS011;39791;53.184;5.486;2024-03-29T11:53:57;10.77;;;9.98;;
53879;SDS011;39791;53.184;5.486;2024-03-29T11:56:24;8.95;;;8.13;;
53879;SDS011;39791;53.184;5.486;2024-03-29T11:58:50;8.55;;;7.95;;
53879;SDS011;39791;53.184;5.486;2024-03-29T12:01:15;6.95;;;6.43;;
53879;SDS011;39791;53.184;5.486;2024-03-29T12:03:42;7.93;;;7.22;;
53879;SDS011;39791;53.184;5.486;2024-03-29T12:06:09;7.82;;;7.22;;
53879;SDS011;39791;53.184;5.486;2024-03-29T12:08:36;11.43;;;10.63;;
53879;SDS011;39791;53.184;5.486;2024-03-29T12:11:04;12.73;;;11.85;;
53879;SDS011;39791;53.184;5.486;2024-03-29T12:13:30;10.20;;;9.50;;
53879;SDS011;39791;53.184;5.486;2024-03-29T12:15:56;11.85;;;11.05;;
53879;SDS011;39791;53.184;5.486;2024-03-29T12:18:24;9.85;;;9.15;;
53879;SDS011;39791;53.184;5.486;2024-03-29T12:20:51;9.93;;;9.20;;
53879;SDS011;39791;53.184;5.486;2024-03-29T12:23:17;9.25;;;8.52;;
53879;SDS011;39791;53.184;5.486;2024-03-29T12:25:44;10.75;;;9.95;;
53879;SDS011;39791;53.184;5.486;2024-03-29T12:28:11;8.35;;;7.65;;
53879;SDS011;39791;53.184;5.486;2024-03-29T12:30:46;8.32;;;7.72;;
53879;SDS011;39791;53.184;5.486;2024-03-29T12:33:13;11.73;;;10.90;;
53879;SDS011;39791;53.184;5.486;2024-03-29T12:35:41;10.98;;;10.07;;
53879;SDS011;39791;53.184;5.486;2024-03-29T12:38:10;11.10;;;10.30;;
53879;SDS011;39791;53.184;5.486;2024-03-29T12:40:40;13.60;;;12.60;;
53879;SDS011;39791;53.184;5.486;2024-03-29T12:43:08;13.88;;;12.88;;
53879;SDS011;39791;53.184;5.486;2024-03-29T12:45:35;13.32;;;12.35;;
53879;SDS011;39791;53.184;5.486;2024-03-29T12:48:02;11.05;;;10.25;;
53879;SDS011;39791;53.184;5.486;2024-03-29T12:50:32;12.50;;;11.55;;
53879;SDS011;39791;53.184;5.486;2024-03-29T12:53:01;11.65;;;10.75;;
53879;SDS011;39791;53.184;5.486;2024-03-29T12:55:34;13.43;;;12.48;;
53879;SDS011;39791;53.184;5.486;2024-03-29T12:58:03;12.85;;;11.90;;
53879;SDS011;39791;53.184;5.486;2024-03-29T13:00:32;12.63;;;11.63;;
53879;SDS011;39791;53.184;5.486;2024-03-29T13:02:58;13.45;;;12.40;;
53879;SDS011;39791;53.184;5.486;2024-03-29T13:05:24;13.30;;;12.23;;
53879;SDS011;39791;53.184;5.486;2024-03-29T13:07:51;11.93;;;11.13;;
53879;SDS011;39791;53.184;5.486;2024-03-29T13:10:17;12.13;;;11.13;;
53879;SDS011;39791;53.184;5.486;2024-03-29T13:12:48;13.95;;;12.95;;
53879;SDS011;39791;53.184;5.486;2024-03-29T13:15:27;15.40;;;14.30;;
53879;SDS011;39791;53.184;5.486;2024-03-29T13:17:53;16.08;;;14.85;;
53879;SDS011;39791;53.184;5.486;2024-03-29T13:20:20;14.57;;;13.50;;
53879;SDS011;39791;53.184;5.486;2024-03-29T13:22:48;15.45;;;14.35;;
53879;SDS011;39791;53.184;5.486;2024-03-29T13:25:15;13.52;;;12.50;;
53879;SDS011;39791;53.184;5.486;2024-03-29T13:27:42;16.80;;;15.55;;
53879;SDS011;39791;53.184;5.486;2024-03-29T13:30:09;15.75;;;14.63;;
53879;SDS011;39791;53.184;5.486;2024-03-29T13:32:36;14.10;;;12.88;;
53879;SDS011;39791;53.184;5.486;2024-03-29T13:35:03;10.35;;;9.65;;
53879;SDS011;39791;53.184;5.486;2024-03-29T13:37:41;9.52;;;8.85;;
53879;SDS011;39791;53.184;5.486;2024-03-29T13:40:14;11.10;;;10.30;;
53879;SDS011;39791;53.184;5.486;2024-03-29T13:42:41;11.52;;;10.73;;
53879;SDS011;39791;53.184;5.486;2024-03-29T13:45:07;9.25;;;8.45;;
53879;SDS011;39791;53.184;5.486;2024-03-29T13:47:36;8.60;;;7.80;;
53879;SDS011;39791;53.184;5.486;2024-03-29T13:50:02;7.55;;;6.95;;
53879;SDS011;39791;53.184;5.486;2024-03-29T13:52:29;5.13;;;4.70;;
53879;SDS011;39791;53.184;5.486;2024-03-29T13:54:55;7.88;;;7.28;;
53879;SDS011;39791;53.184;5.486;2024-03-29T13:57:21;7.13;;;6.53;;
53879;SDS011;39791;53.184;5.486;2024-03-29T13:59:47;6.95;;;6.40;;
53879;SDS011;39791;53.184;5.486;2024-03-29T14:02:13;7.80;;;7.10;;
53879;SDS011;39791;53.184;5.486;2024-03-29T14:04:40;6.85;;;6.25;;
53879;SDS011;39791;53.184;5.486;2024-03-29T14:07:06;5.88;;;5.35;;
53879;SDS011;39791;53.184;5.486;2024-03-29T14:09:34;7.18;;;5.57;;
53879;SDS011;39791;53.184;5.486;2024-03-29T14:12:00;5.80;;;5.38;;
53879;SDS011;39791;53.184;5.486;2024-03-29T14:14:27;6.00;;;5.50;;
53879;SDS011;39791;53.184;5.486;2024-03-29T14:16:52;9.50;;;8.70;;
53879;SDS011;39791;53.184;5.486;2024-03-29T14:19:18;9.77;;;8.77;;
53879;SDS011;39791;53.184;5.486;2024-03-29T14:21:44;9.63;;;8.77;;
53879;SDS011;39791;53.184;5.486;2024-03-29T14:24:09;10.80;;;9.88;;
53879;SDS011;39791;53.184;5.486;2024-03-29T14:26:35;11.10;;;10.10;;